sensor_id;sensor_type;location;lat;lon;timestamp;P1;durP1;ratioP1;P2;durP2;ratioP2
47161;SDS011;32921;53.256;8.198;2022-07-06T00:01:15;9.82;;;1.63;;
47161;SDS011;32921;53.256;8.198;2022-07-06T00:03:41;8.10;;;1.67;;
47161;SDS011;32921;53.256;8.198;2022-07-06T00:06:07;6.82;;;1.73;;
47161;SDS011;32921;53.256;8.198;2022-07-06T00:08:33;13.93;;;1.88;;
47161;SDS011;32921;53.256;8.198;2022-07-06T00:10:59;7.63;;;2.00;;
47161;SDS011;32921;53.256;8.198;2022-07-06T00:13:24;9.02;;;1.88;;
47161;SDS011;32921;53.256;8.198;2022-07-06T00:15:50;6.95;;;1.50;;
47161;SDS011;32921;53.256;8.198;2022-07-06T00:18:16;10.55;;;2.20;;
47161;SDS011;32921;53.256;8.198;2022-07-06T00:20:41;7.82;;;1.70;;
47161;SDS011;32921;53.256;8.198;2022-07-06T00:23:07;8.73;;;1.60;;
47161;SDS011;32921;53.256;8.198;2022-07-06T00:25:33;7.25;;;1.58;;
47161;SDS011;32921;53.256;8.198;2022-07-06T00:27:58;7.30;;;1.85;;
47161;SDS011;32921;53.256;8.198;2022-07-06T00:30:24;9.85;;;2.00;;
47161;SDS011;32921;53.256;8.198;2022-07-06T00:32:49;7.30;;;1.70;;
47161;SDS011;32921;53.256;8.198;2022-07-06T00:35:15;11.20;;;2.10;;
47161;SDS011;32921;53.256;8.198;2022-07-06T00:37:47;9.43;;;1.83;;
47161;SDS011;32921;53.256;8.198;2022-07-06T00:40:13;12.88;;;2.10;;
47161;SDS011;32921;53.256;8.198;2022-07-06T00:42:39;9.90;;;1.90;;
47161;SDS011;32921;53.256;8.198;2022-07-06T00:45:09;9.40;;;2.00;;
47161;SDS011;32921;53.256;8.198;2022-07-06T00:47:35;5.18;;;1.90;;
47161;SDS011;32921;53.256;8.198;2022-07-06T00:50:02;7.55;;;2.10;;
47161;SDS011;32921;53.256;8.198;2022-07-06T00:52:57;9.52;;;1.88;;
47161;SDS011;32921;53.256;8.198;2022-07-06T00:55:26;7.47;;;2.08;;
47161;SDS011;32921;53.256;8.198;2022-07-06T00:57:53;7.90;;;2.20;;
47161;SDS011;32921;53.256;8.198;2022-07-06T01:00:38;7.97;;;1.75;;
47161;SDS011;32921;53.256;8.198;2022-07-06T01:05:41;7.35;;;1.83;;
47161;SDS011;32921;53.256;8.198;2022-07-06T01:08:07;8.43;;;1.70;;
47161;SDS011;32921;53.256;8.198;2022-07-06T01:10:32;12.30;;;2.20;;
47161;SDS011;32921;53.256;8.198;2022-07-06T01:12:58;8.18;;;2.35;;
47161;SDS011;32921;53.256;8.198;2022-07-06T01:15:24;9.38;;;2.10;;
47161;SDS011;32921;53.256;8.198;2022-07-06T01:17:50;6.88;;;2.15;;
47161;SDS011;32921;53.256;8.198;2022-07-06T01:20:20;9.02;;;2.33;;
47161;SDS011;32921;53.256;8.198;2022-07-06T01:22:48;6.03;;;1.90;;
47161;SDS011;32921;53.256;8.198;2022-07-06T01:25:15;10.98;;;1.90;;
47161;SDS011;32921;53.256;8.198;2022-07-06T01:27:42;7.32;;;2.35;;
47161;SDS011;32921;53.256;8.198;2022-07-06T01:30:09;4.50;;;1.98;;
47161;SDS011;32921;53.256;8.198;2022-07-06T01:32:39;7.88;;;2.25;;
47161;SDS011;32921;53.256;8.198;2022-07-06T01:35:06;10.77;;;2.20;;
47161;SDS011;32921;53.256;8.198;2022-07-06T01:37:34;8.98;;;1.88;;
47161;SDS011;32921;53.256;8.198;2022-07-06T01:40:01;8.35;;;1.95;;
47161;SDS011;32921;53.256;8.198;2022-07-06T01:42:28;7.60;;;1.95;;
47161;SDS011;32921;53.256;8.198;2022-07-06T01:44:54;10.15;;;2.10;;
47161;SDS011;32921;53.256;8.198;2022-07-06T01:47:20;8.73;;;2.30;;
47161;SDS011;32921;53.256;8.198;2022-07-06T01:49:46;7.85;;;2.20;;
47161;SDS011;32921;53.256;8.198;2022-07-06T01:52:11;7.25;;;2.10;;
47161;SDS011;32921;53.256;8.198;2022-07-06T01:54:37;7.68;;;2.05;;
47161;SDS011;32921;53.256;8.198;2022-07-06T01:57:03;10.50;;;2.10;;
47161;SDS011;32921;53.256;8.198;2022-07-06T01:59:28;7.25;;;2.25;;
47161;SDS011;32921;53.256;8.198;2022-07-06T02:01:54;11.60;;;2.72;;
47161;SDS011;32921;53.256;8.198;2022-07-06T02:04:20;7.57;;;2.55;;
47161;SDS011;32921;53.256;8.198;2022-07-06T02:06:45;10.45;;;2.42;;
47161;SDS011;32921;53.256;8.198;2022-07-06T02:09:11;10.18;;;2.30;;
47161;SDS011;32921;53.256;8.198;2022-07-06T02:11:36;14.25;;;3.30;;
47161;SDS011;32921;53.256;8.198;2022-07-06T02:14:02;12.90;;;2.55;;
47161;SDS011;32921;53.256;8.198;2022-07-06T02:16:28;9.68;;;2.38;;
47161;SDS011;32921;53.256;8.198;2022-07-06T02:18:53;10.80;;;2.75;;
47161;SDS011;32921;53.256;8.198;2022-07-06T02:21:19;10.50;;;2.45;;
47161;SDS011;32921;53.256;8.198;2022-07-06T02:23:44;10.27;;;2.50;;
47161;SDS011;32921;53.256;8.198;2022-07-06T02:26:10;7.57;;;2.60;;
47161;SDS011;32921;53.256;8.198;2022-07-06T02:28:35;9.55;;;2.75;;
47161;SDS011;32921;53.256;8.198;2022-07-06T02:31:01;10.40;;;2.28;;
47161;SDS011;32921;53.256;8.198;2022-07-06T02:33:27;8.50;;;2.38;;
47161;SDS011;32921;53.256;8.198;2022-07-06T02:35:52;6.55;;;2.35;;
47161;SDS011;32921;53.256;8.198;2022-07-06T02:38:18;7.88;;;2.40;;
47161;SDS011;32921;53.256;8.198;2022-07-06T02:40:43;7.07;;;2.58;;
47161;SDS011;32921;53.256;8.198;2022-07-06T02:43:09;8.13;;;2.47;;
47161;SDS011;32921;53.256;8.198;2022-07-06T02:45:35;9.18;;;2.30;;
47161;SDS011;32921;53.256;8.198;2022-07-06T02:48:00;7.65;;;2.22;;
47161;SDS011;32921;53.256;8.198;2022-07-06T02:50:26;9.95;;;2.88;;
47161;SDS011;32921;53.256;8.198;2022-07-06T02:52:51;8.70;;;2.15;;
47161;SDS011;32921;53.256;8.198;2022-07-06T02:55:17;11.25;;;2.60;;
47161;SDS011;32921;53.256;8.198;2022-07-06T02:57:43;8.60;;;2.40;;
47161;SDS011;32921;53.256;8.198;2022-07-06T03:00:08;7.00;;;2.30;;
47161;SDS011;32921;53.256;8.198;2022-07-06T03:02:35;9.25;;;2.30;;
47161;SDS011;32921;53.256;8.198;2022-07-06T03:05:01;10.45;;;2.35;;
47161;SDS011;32921;53.256;8.198;2022-07-06T03:07:27;8.85;;;1.80;;
47161;SDS011;32921;53.256;8.198;2022-07-06T03:09:53;9.90;;;2.25;;
47161;SDS011;32921;53.256;8.198;2022-07-06T03:12:18;8.85;;;1.92;;
47161;SDS011;32921;53.256;8.198;2022-07-06T03:14:44;12.80;;;2.30;;
47161;SDS011;32921;53.256;8.198;2022-07-06T03:17:09;7.63;;;1.83;;
47161;SDS011;32921;53.256;8.198;2022-07-06T03:19:35;8.52;;;2.20;;
47161;SDS011;32921;53.256;8.198;2022-07-06T03:22:01;8.55;;;1.98;;
47161;SDS011;32921;53.256;8.198;2022-07-06T03:24:27;6.18;;;2.30;;
47161;SDS011;32921;53.256;8.198;2022-07-06T03:26:53;9.50;;;2.42;;
47161;SDS011;32921;53.256;8.198;2022-07-06T03:29:18;7.95;;;1.95;;
47161;SDS011;32921;53.256;8.198;2022-07-06T03:31:45;7.57;;;1.90;;
47161;SDS011;32921;53.256;8.198;2022-07-06T03:34:11;8.32;;;1.80;;
47161;SDS011;32921;53.256;8.198;2022-07-06T03:36:36;8.57;;;1.85;;
47161;SDS011;32921;53.256;8.198;2022-07-06T03:39:02;7.45;;;2.47;;
47161;SDS011;32921;53.256;8.198;2022-07-06T03:41:28;8.00;;;2.15;;
47161;SDS011;32921;53.256;8.198;2022-07-06T03:43:54;9.00;;;2.40;;
47161;SDS011;32921;53.256;8.198;2022-07-06T03:46:19;6.55;;;1.90;;
47161;SDS011;32921;53.256;8.198;2022-07-06T03:48:45;8.98;;;1.98;;
47161;SDS011;32921;53.256;8.198;2022-07-06T03:51:10;11.38;;;2.10;;
47161;SDS011;32921;53.256;8.198;2022-07-06T03:53:36;7.03;;;1.85;;
47161;SDS011;32921;53.256;8.198;2022-07-06T03:56:02;7.10;;;2.28;;
47161;SDS011;32921;53.256;8.198;2022-07-06T03:58:46;11.05;;;2.45;;
47161;SDS011;32921;53.256;8.198;2022-07-06T04:01:12;9.30;;;1.85;;
47161;SDS011;32921;53.256;8.198;2022-07-06T04:03:37;9.00;;;1.90;;
47161;SDS011;32921;53.256;8.198;2022-07-06T04:06:03;8.25;;;1.70;;
47161;SDS011;32921;53.256;8.198;2022-07-06T04:08:29;6.75;;;2.00;;
47161;SDS011;32921;53.256;8.198;2022-07-06T04:10:55;7.38;;;1.58;;
47161;SDS011;32921;53.256;8.198;2022-07-06T04:13:20;6.82;;;1.58;;
47161;SDS011;32921;53.256;8.198;2022-07-06T04:15:46;4.65;;;1.45;;
47161;SDS011;32921;53.256;8.198;2022-07-06T04:18:11;6.28;;;1.90;;
47161;SDS011;32921;53.256;8.198;2022-07-06T04:20:37;10.52;;;1.90;;
47161;SDS011;32921;53.256;8.198;2022-07-06T04:23:03;8.02;;;1.88;;
47161;SDS011;32921;53.256;8.198;2022-07-06T04:25:29;9.93;;;2.15;;
47161;SDS011;32921;53.256;8.198;2022-07-06T04:27:54;8.10;;;1.85;;
47161;SDS011;32921;53.256;8.198;2022-07-06T04:30:20;5.90;;;1.60;;
47161;SDS011;32921;53.256;8.198;2022-07-06T04:32:46;6.80;;;1.92;;
47161;SDS011;32921;53.256;8.198;2022-07-06T04:35:11;7.63;;;1.75;;
47161;SDS011;32921;53.256;8.198;2022-07-06T04:37:37;6.38;;;1.73;;
47161;SDS011;32921;53.256;8.198;2022-07-06T04:40:02;7.10;;;1.80;;
47161;SDS011;32921;53.256;8.198;2022-07-06T04:42:29;6.55;;;1.70;;
47161;SDS011;32921;53.256;8.198;2022-07-06T04:44:54;8.30;;;1.60;;
47161;SDS011;32921;53.256;8.198;2022-07-06T04:47:20;5.00;;;1.80;;
47161;SDS011;32921;53.256;8.198;2022-07-06T04:49:46;11.48;;;2.00;;
47161;SDS011;32921;53.256;8.198;2022-07-06T04:52:11;6.03;;;1.65;;
47161;SDS011;32921;53.256;8.198;2022-07-06T04:54:37;7.43;;;1.98;;
47161;SDS011;32921;53.256;8.198;2022-07-06T04:57:03;8.63;;;1.85;;
47161;SDS011;32921;53.256;8.198;2022-07-06T04:59:29;9.80;;;1.70;;
47161;SDS011;32921;53.256;8.198;2022-07-06T05:01:54;5.55;;;1.60;;
47161;SDS011;32921;53.256;8.198;2022-07-06T05:04:20;7.03;;;1.92;;
47161;SDS011;32921;53.256;8.198;2022-07-06T05:06:45;6.15;;;1.70;;
47161;SDS011;32921;53.256;8.198;2022-07-06T05:09:11;8.55;;;2.05;;
47161;SDS011;32921;53.256;8.198;2022-07-06T05:11:38;7.18;;;1.83;;
47161;SDS011;32921;53.256;8.198;2022-07-06T05:14:04;5.15;;;1.55;;
47161;SDS011;32921;53.256;8.198;2022-07-06T05:16:30;6.95;;;1.90;;
47161;SDS011;32921;53.256;8.198;2022-07-06T05:18:55;5.50;;;1.70;;
47161;SDS011;32921;53.256;8.198;2022-07-06T05:21:21;6.18;;;1.42;;
47161;SDS011;32921;53.256;8.198;2022-07-06T05:23:47;7.35;;;2.00;;
47161;SDS011;32921;53.256;8.198;2022-07-06T05:26:12;6.80;;;2.05;;
47161;SDS011;32921;53.256;8.198;2022-07-06T05:28:38;5.57;;;1.80;;
47161;SDS011;32921;53.256;8.198;2022-07-06T05:31:03;5.35;;;1.70;;
47161;SDS011;32921;53.256;8.198;2022-07-06T05:33:29;6.45;;;1.38;;
47161;SDS011;32921;53.256;8.198;2022-07-06T05:35:55;4.32;;;1.55;;
47161;SDS011;32921;53.256;8.198;2022-07-06T05:38:20;8.15;;;1.90;;
47161;SDS011;32921;53.256;8.198;2022-07-06T05:40:46;5.35;;;1.40;;
47161;SDS011;32921;53.256;8.198;2022-07-06T05:43:12;7.97;;;1.70;;
47161;SDS011;32921;53.256;8.198;2022-07-06T05:45:37;7.90;;;1.58;;
47161;SDS011;32921;53.256;8.198;2022-07-06T05:48:03;4.97;;;1.25;;
47161;SDS011;32921;53.256;8.198;2022-07-06T05:50:58;5.65;;;1.50;;
47161;SDS011;32921;53.256;8.198;2022-07-06T05:53:24;10.15;;;2.33;;
47161;SDS011;32921;53.256;8.198;2022-07-06T05:55:50;12.82;;;1.50;;
47161;SDS011;32921;53.256;8.198;2022-07-06T05:58:15;10.25;;;2.10;;
47161;SDS011;32921;53.256;8.198;2022-07-06T06:00:41;7.45;;;1.77;;
47161;SDS011;32921;53.256;8.198;2022-07-06T06:03:07;7.65;;;1.40;;
47161;SDS011;32921;53.256;8.198;2022-07-06T06:05:32;5.72;;;1.40;;
47161;SDS011;32921;53.256;8.198;2022-07-06T06:07:58;8.60;;;1.20;;
47161;SDS011;32921;53.256;8.198;2022-07-06T06:10:23;7.95;;;1.38;;
47161;SDS011;32921;53.256;8.198;2022-07-06T06:12:49;6.82;;;1.35;;
47161;SDS011;32921;53.256;8.198;2022-07-06T06:15:15;6.43;;;1.20;;
47161;SDS011;32921;53.256;8.198;2022-07-06T06:17:42;7.60;;;1.38;;
47161;SDS011;32921;53.256;8.198;2022-07-06T06:20:08;6.63;;;1.20;;
47161;SDS011;32921;53.256;8.198;2022-07-06T06:22:48;5.55;;;1.17;;
47161;SDS011;32921;53.256;8.198;2022-07-06T06:25:30;5.93;;;1.27;;
47161;SDS011;32921;53.256;8.198;2022-07-06T06:28:00;4.47;;;1.00;;
47161;SDS011;32921;53.256;8.198;2022-07-06T06:30:27;5.68;;;1.00;;
47161;SDS011;32921;53.256;8.198;2022-07-06T06:38:40;6.45;;;1.10;;
47161;SDS011;32921;53.256;8.198;2022-07-06T06:41:06;7.88;;;1.00;;
47161;SDS011;32921;53.256;8.198;2022-07-06T06:43:32;3.22;;;0.90;;
47161;SDS011;32921;53.256;8.198;2022-07-06T06:45:57;4.63;;;0.90;;
47161;SDS011;32921;53.256;8.198;2022-07-06T06:48:23;5.50;;;1.17;;
47161;SDS011;32921;53.256;8.198;2022-07-06T06:50:48;6.63;;;1.00;;
47161;SDS011;32921;53.256;8.198;2022-07-06T06:53:14;4.95;;;0.98;;
47161;SDS011;32921;53.256;8.198;2022-07-06T06:55:40;5.28;;;1.05;;
47161;SDS011;32921;53.256;8.198;2022-07-06T06:58:05;8.13;;;1.20;;
47161;SDS011;32921;53.256;8.198;2022-07-06T07:00:31;6.88;;;1.00;;
47161;SDS011;32921;53.256;8.198;2022-07-06T07:02:56;3.15;;;0.80;;
47161;SDS011;32921;53.256;8.198;2022-07-06T07:05:22;3.97;;;0.70;;
47161;SDS011;32921;53.256;8.198;2022-07-06T07:07:47;5.95;;;0.90;;
47161;SDS011;32921;53.256;8.198;2022-07-06T07:10:13;4.60;;;0.82;;
47161;SDS011;32921;53.256;8.198;2022-07-06T07:12:42;3.13;;;0.57;;
47161;SDS011;32921;53.256;8.198;2022-07-06T07:15:11;4.30;;;0.73;;
47161;SDS011;32921;53.256;8.198;2022-07-06T07:17:38;4.38;;;0.95;;
47161;SDS011;32921;53.256;8.198;2022-07-06T07:20:04;8.75;;;0.82;;
47161;SDS011;32921;53.256;8.198;2022-07-06T07:22:30;5.85;;;0.80;;
47161;SDS011;32921;53.256;8.198;2022-07-06T07:24:56;3.92;;;0.63;;
47161;SDS011;32921;53.256;8.198;2022-07-06T07:27:23;8.50;;;1.35;;
47161;SDS011;32921;53.256;8.198;2022-07-06T07:29:49;4.80;;;0.93;;
47161;SDS011;32921;53.256;8.198;2022-07-06T07:32:15;6.32;;;0.75;;
47161;SDS011;32921;53.256;8.198;2022-07-06T07:34:41;4.65;;;0.75;;
47161;SDS011;32921;53.256;8.198;2022-07-06T07:37:06;5.97;;;0.88;;
47161;SDS011;32921;53.256;8.198;2022-07-06T07:39:32;4.75;;;1.10;;
47161;SDS011;32921;53.256;8.198;2022-07-06T07:41:57;6.13;;;0.80;;
47161;SDS011;32921;53.256;8.198;2022-07-06T07:44:23;4.97;;;0.68;;
47161;SDS011;32921;53.256;8.198;2022-07-06T07:46:49;4.53;;;0.60;;
47161;SDS011;32921;53.256;8.198;2022-07-06T07:49:17;3.53;;;0.68;;
47161;SDS011;32921;53.256;8.198;2022-07-06T07:51:44;3.03;;;0.60;;
47161;SDS011;32921;53.256;8.198;2022-07-06T07:54:11;5.47;;;0.75;;
47161;SDS011;32921;53.256;8.198;2022-07-06T07:56:37;4.30;;;0.70;;
47161;SDS011;32921;53.256;8.198;2022-07-06T07:59:05;6.22;;;0.68;;
47161;SDS011;32921;53.256;8.198;2022-07-06T08:01:31;4.53;;;0.60;;
47161;SDS011;32921;53.256;8.198;2022-07-06T08:03:57;3.10;;;0.65;;
47161;SDS011;32921;53.256;8.198;2022-07-06T08:06:23;3.60;;;0.60;;
47161;SDS011;32921;53.256;8.198;2022-07-06T08:08:48;7.32;;;0.82;;
47161;SDS011;32921;53.256;8.198;2022-07-06T08:11:14;4.78;;;1.20;;
47161;SDS011;32921;53.256;8.198;2022-07-06T08:13:39;6.05;;;1.20;;
47161;SDS011;32921;53.256;8.198;2022-07-06T08:16:05;4.97;;;0.90;;
47161;SDS011;32921;53.256;8.198;2022-07-06T08:18:31;5.82;;;0.68;;
47161;SDS011;32921;53.256;8.198;2022-07-06T08:20:56;7.28;;;0.85;;
47161;SDS011;32921;53.256;8.198;2022-07-06T08:23:22;4.22;;;0.80;;
47161;SDS011;32921;53.256;8.198;2022-07-06T08:25:48;6.45;;;1.15;;
47161;SDS011;32921;53.256;8.198;2022-07-06T08:28:14;3.40;;;0.90;;
47161;SDS011;32921;53.256;8.198;2022-07-06T08:30:39;3.95;;;0.68;;
47161;SDS011;32921;53.256;8.198;2022-07-06T08:33:05;4.30;;;0.80;;
47161;SDS011;32921;53.256;8.198;2022-07-06T08:35:31;6.28;;;1.00;;
47161;SDS011;32921;53.256;8.198;2022-07-06T08:37:57;6.38;;;1.00;;
47161;SDS011;32921;53.256;8.198;2022-07-06T08:40:22;6.70;;;1.00;;
47161;SDS011;32921;53.256;8.198;2022-07-06T08:42:49;5.82;;;1.00;;
47161;SDS011;32921;53.256;8.198;2022-07-06T08:45:19;5.60;;;1.02;;
47161;SDS011;32921;53.256;8.198;2022-07-06T08:47:45;4.75;;;0.80;;
47161;SDS011;32921;53.256;8.198;2022-07-06T08:50:14;5.90;;;0.77;;
47161;SDS011;32921;53.256;8.198;2022-07-06T08:52:41;6.63;;;0.90;;
47161;SDS011;32921;53.256;8.198;2022-07-06T08:55:10;4.97;;;0.70;;
47161;SDS011;32921;53.256;8.198;2022-07-06T08:57:37;5.47;;;1.00;;
47161;SDS011;32921;53.256;8.198;2022-07-06T09:00:05;2.60;;;0.52;;
47161;SDS011;32921;53.256;8.198;2022-07-06T09:02:32;3.25;;;0.80;;
47161;SDS011;32921;53.256;8.198;2022-07-06T09:04:58;5.85;;;0.95;;
47161;SDS011;32921;53.256;8.198;2022-07-06T09:07:27;3.10;;;0.57;;
47161;SDS011;32921;53.256;8.198;2022-07-06T09:09:54;3.67;;;0.70;;
47161;SDS011;32921;53.256;8.198;2022-07-06T09:12:21;5.25;;;0.80;;
47161;SDS011;32921;53.256;8.198;2022-07-06T09:14:46;3.85;;;0.75;;
47161;SDS011;32921;53.256;8.198;2022-07-06T09:17:12;4.00;;;0.57;;
47161;SDS011;32921;53.256;8.198;2022-07-06T09:19:38;6.15;;;1.02;;
47161;SDS011;32921;53.256;8.198;2022-07-06T09:22:04;5.45;;;0.68;;
47161;SDS011;32921;53.256;8.198;2022-07-06T09:24:30;4.88;;;1.00;;
47161;SDS011;32921;53.256;8.198;2022-07-06T09:26:56;4.88;;;0.60;;
47161;SDS011;32921;53.256;8.198;2022-07-06T09:29:26;5.03;;;0.73;;
47161;SDS011;32921;53.256;8.198;2022-07-06T09:31:57;8.75;;;0.95;;
47161;SDS011;32921;53.256;8.198;2022-07-06T09:34:23;8.88;;;1.13;;
47161;SDS011;32921;53.256;8.198;2022-07-06T09:36:49;3.15;;;0.77;;
47161;SDS011;32921;53.256;8.198;2022-07-06T09:41:56;3.67;;;0.60;;
47161;SDS011;32921;53.256;8.198;2022-07-06T09:44:27;5.15;;;0.88;;
47161;SDS011;32921;53.256;8.198;2022-07-06T09:46:59;2.55;;;0.57;;
47161;SDS011;32921;53.256;8.198;2022-07-06T09:49:26;4.55;;;0.50;;
47161;SDS011;32921;53.256;8.198;2022-07-06T09:51:53;5.45;;;0.82;;
47161;SDS011;32921;53.256;8.198;2022-07-06T09:54:20;2.42;;;0.40;;
47161;SDS011;32921;53.256;8.198;2022-07-06T09:56:47;3.15;;;0.55;;
47161;SDS011;32921;53.256;8.198;2022-07-06T09:59:16;2.50;;;0.60;;
47161;SDS011;32921;53.256;8.198;2022-07-06T10:01:52;2.75;;;0.68;;
47161;SDS011;32921;53.256;8.198;2022-07-06T10:04:19;3.55;;;0.60;;
47161;SDS011;32921;53.256;8.198;2022-07-06T10:06:45;3.47;;;0.60;;
47161;SDS011;32921;53.256;8.198;2022-07-06T10:09:12;4.25;;;0.50;;
47161;SDS011;32921;53.256;8.198;2022-07-06T10:12:12;3.05;;;0.52;;
47161;SDS011;32921;53.256;8.198;2022-07-06T10:14:33;3.03;;;0.60;;
47161;SDS011;32921;53.256;8.198;2022-07-06T10:17:00;3.67;;;0.52;;
47161;SDS011;32921;53.256;8.198;2022-07-06T10:19:27;3.05;;;0.50;;
47161;SDS011;32921;53.256;8.198;2022-07-06T10:21:54;2.10;;;0.30;;
47161;SDS011;32921;53.256;8.198;2022-07-06T10:24:23;1.65;;;0.32;;
47161;SDS011;32921;53.256;8.198;2022-07-06T10:26:49;1.95;;;0.40;;
47161;SDS011;32921;53.256;8.198;2022-07-06T10:29:16;2.78;;;0.30;;
47161;SDS011;32921;53.256;8.198;2022-07-06T10:31:45;3.08;;;0.38;;
47161;SDS011;32921;53.256;8.198;2022-07-06T10:34:13;3.85;;;0.70;;
47161;SDS011;32921;53.256;8.198;2022-07-06T10:36:41;3.83;;;0.40;;
47161;SDS011;32921;53.256;8.198;2022-07-06T10:39:08;4.90;;;0.52;;
47161;SDS011;32921;53.256;8.198;2022-07-06T10:41:54;3.72;;;0.70;;
47161;SDS011;32921;53.256;8.198;2022-07-06T10:44:21;3.92;;;0.60;;
47161;SDS011;32921;53.256;8.198;2022-07-06T10:49:21;2.55;;;0.38;;
47161;SDS011;32921;53.256;8.198;2022-07-06T10:51:48;3.88;;;0.52;;
47161;SDS011;32921;53.256;8.198;2022-07-06T10:54:14;3.90;;;0.60;;
47161;SDS011;32921;53.256;8.198;2022-07-06T10:56:45;3.58;;;0.70;;
47161;SDS011;32921;53.256;8.198;2022-07-06T10:59:16;6.38;;;0.80;;
47161;SDS011;32921;53.256;8.198;2022-07-06T11:04:49;2.25;;;0.50;;
47161;SDS011;32921;53.256;8.198;2022-07-06T11:07:15;3.33;;;0.60;;
47161;SDS011;32921;53.256;8.198;2022-07-06T11:10:01;4.78;;;0.70;;
47161;SDS011;32921;53.256;8.198;2022-07-06T11:12:26;5.90;;;0.70;;
47161;SDS011;32921;53.256;8.198;2022-07-06T11:14:52;4.88;;;0.70;;
47161;SDS011;32921;53.256;8.198;2022-07-06T11:17:18;4.43;;;0.73;;
47161;SDS011;32921;53.256;8.198;2022-07-06T11:19:57;3.13;;;0.60;;
47161;SDS011;32921;53.256;8.198;2022-07-06T11:22:35;6.00;;;0.80;;
47161;SDS011;32921;53.256;8.198;2022-07-06T11:25:01;4.88;;;0.60;;
47161;SDS011;32921;53.256;8.198;2022-07-06T11:27:27;3.55;;;0.60;;
47161;SDS011;32921;53.256;8.198;2022-07-06T11:29:54;5.80;;;0.80;;
47161;SDS011;32921;53.256;8.198;2022-07-06T11:32:23;4.18;;;0.60;;
47161;SDS011;32921;53.256;8.198;2022-07-06T11:34:51;3.17;;;0.68;;
47161;SDS011;32921;53.256;8.198;2022-07-06T11:37:17;4.60;;;0.60;;
47161;SDS011;32921;53.256;8.198;2022-07-06T11:39:44;5.05;;;0.73;;
47161;SDS011;32921;53.256;8.198;2022-07-06T11:42:11;4.35;;;0.75;;
47161;SDS011;32921;53.256;8.198;2022-07-06T11:44:39;2.33;;;0.63;;
47161;SDS011;32921;53.256;8.198;2022-07-06T11:47:06;3.30;;;0.60;;
47161;SDS011;32921;53.256;8.198;2022-07-06T11:49:32;2.67;;;0.50;;
47161;SDS011;32921;53.256;8.198;2022-07-06T11:51:59;2.80;;;0.63;;
47161;SDS011;32921;53.256;8.198;2022-07-06T11:54:30;2.78;;;0.63;;
47161;SDS011;32921;53.256;8.198;2022-07-06T11:56:58;2.35;;;0.50;;
47161;SDS011;32921;53.256;8.198;2022-07-06T11:59:25;4.65;;;0.57;;
47161;SDS011;32921;53.256;8.198;2022-07-06T12:04:29;5.28;;;0.50;;
47161;SDS011;32921;53.256;8.198;2022-07-06T12:07:00;2.60;;;0.60;;
47161;SDS011;32921;53.256;8.198;2022-07-06T12:09:29;4.57;;;0.80;;
47161;SDS011;32921;53.256;8.198;2022-07-06T12:11:57;3.05;;;0.65;;
47161;SDS011;32921;53.256;8.198;2022-07-06T12:14:27;2.80;;;0.40;;
47161;SDS011;32921;53.256;8.198;2022-07-06T12:16:53;5.38;;;0.50;;
47161;SDS011;32921;53.256;8.198;2022-07-06T12:19:19;4.07;;;0.60;;
47161;SDS011;32921;53.256;8.198;2022-07-06T12:21:47;6.00;;;0.68;;
47161;SDS011;32921;53.256;8.198;2022-07-06T12:24:21;1.83;;;0.40;;
47161;SDS011;32921;53.256;8.198;2022-07-06T12:26:49;5.03;;;0.65;;
47161;SDS011;32921;53.256;8.198;2022-07-06T12:29:16;1.52;;;0.35;;
47161;SDS011;32921;53.256;8.198;2022-07-06T12:31:55;3.05;;;0.60;;
47161;SDS011;32921;53.256;8.198;2022-07-06T12:34:22;5.13;;;0.40;;
47161;SDS011;32921;53.256;8.198;2022-07-06T12:36:50;2.47;;;0.40;;
47161;SDS011;32921;53.256;8.198;2022-07-06T12:39:17;6.30;;;0.68;;
47161;SDS011;32921;53.256;8.198;2022-07-06T12:41:47;4.13;;;0.60;;
47161;SDS011;32921;53.256;8.198;2022-07-06T12:44:18;3.15;;;0.50;;
47161;SDS011;32921;53.256;8.198;2022-07-06T12:46:48;3.33;;;0.43;;
47161;SDS011;32921;53.256;8.198;2022-07-06T12:49:21;1.98;;;0.35;;
47161;SDS011;32921;53.256;8.198;2022-07-06T12:51:49;1.50;;;0.30;;
47161;SDS011;32921;53.256;8.198;2022-07-06T12:54:15;1.45;;;0.20;;
47161;SDS011;32921;53.256;8.198;2022-07-06T12:57:00;2.83;;;0.50;;
47161;SDS011;32921;53.256;8.198;2022-07-06T12:59:28;2.75;;;0.60;;
47161;SDS011;32921;53.256;8.198;2022-07-06T13:01:55;4.57;;;0.63;;
47161;SDS011;32921;53.256;8.198;2022-07-06T13:04:21;2.30;;;0.40;;
47161;SDS011;32921;53.256;8.198;2022-07-06T13:06:48;2.63;;;0.55;;
47161;SDS011;32921;53.256;8.198;2022-07-06T13:09:14;1.90;;;0.43;;
47161;SDS011;32921;53.256;8.198;2022-07-06T13:11:41;2.50;;;0.40;;
47161;SDS011;32921;53.256;8.198;2022-07-06T13:14:06;4.30;;;0.68;;
47161;SDS011;32921;53.256;8.198;2022-07-06T13:16:33;2.47;;;0.68;;
47161;SDS011;32921;53.256;8.198;2022-07-06T13:19:00;3.95;;;0.57;;
47161;SDS011;32921;53.256;8.198;2022-07-06T13:21:26;4.00;;;0.60;;
47161;SDS011;32921;53.256;8.198;2022-07-06T13:23:51;2.58;;;0.63;;
47161;SDS011;32921;53.256;8.198;2022-07-06T13:26:17;5.80;;;0.60;;
47161;SDS011;32921;53.256;8.198;2022-07-06T13:28:42;4.22;;;0.73;;
47161;SDS011;32921;53.256;8.198;2022-07-06T13:31:08;2.95;;;0.50;;
47161;SDS011;32921;53.256;8.198;2022-07-06T13:33:34;6.30;;;0.80;;
47161;SDS011;32921;53.256;8.198;2022-07-06T13:36:00;2.83;;;0.52;;
47161;SDS011;32921;53.256;8.198;2022-07-06T13:38:26;6.60;;;0.80;;
47161;SDS011;32921;53.256;8.198;2022-07-06T13:40:52;3.45;;;0.80;;
47161;SDS011;32921;53.256;8.198;2022-07-06T13:43:18;3.75;;;0.57;;
47161;SDS011;32921;53.256;8.198;2022-07-06T13:45:44;5.97;;;0.70;;
47161;SDS011;32921;53.256;8.198;2022-07-06T13:48:11;3.13;;;0.63;;
47161;SDS011;32921;53.256;8.198;2022-07-06T13:50:37;4.70;;;0.70;;
47161;SDS011;32921;53.256;8.198;2022-07-06T13:53:03;2.83;;;0.73;;
47161;SDS011;32921;53.256;8.198;2022-07-06T13:55:29;4.32;;;0.82;;
47161;SDS011;32921;53.256;8.198;2022-07-06T13:57:55;6.95;;;0.80;;
47161;SDS011;32921;53.256;8.198;2022-07-06T14:00:21;4.25;;;0.80;;
47161;SDS011;32921;53.256;8.198;2022-07-06T14:02:47;5.47;;;0.70;;
47161;SDS011;32921;53.256;8.198;2022-07-06T14:05:12;3.90;;;0.80;;
47161;SDS011;32921;53.256;8.198;2022-07-06T14:07:38;3.08;;;0.57;;
47161;SDS011;32921;53.256;8.198;2022-07-06T14:10:04;2.20;;;0.60;;
47161;SDS011;32921;53.256;8.198;2022-07-06T14:12:30;7.30;;;0.80;;
47161;SDS011;32921;53.256;8.198;2022-07-06T14:14:57;7.07;;;0.68;;
47161;SDS011;32921;53.256;8.198;2022-07-06T14:17:23;7.43;;;0.85;;
47161;SDS011;32921;53.256;8.198;2022-07-06T14:19:53;3.65;;;0.50;;
47161;SDS011;32921;53.256;8.198;2022-07-06T14:22:19;4.40;;;0.90;;
47161;SDS011;32921;53.256;8.198;2022-07-06T14:24:44;4.03;;;0.90;;
47161;SDS011;32921;53.256;8.198;2022-07-06T14:27:10;3.97;;;1.10;;
47161;SDS011;32921;53.256;8.198;2022-07-06T14:29:35;4.72;;;0.63;;
47161;SDS011;32921;53.256;8.198;2022-07-06T14:32:01;2.55;;;0.70;;
47161;SDS011;32921;53.256;8.198;2022-07-06T14:34:27;3.92;;;0.60;;
47161;SDS011;32921;53.256;8.198;2022-07-06T14:36:52;4.60;;;0.90;;
47161;SDS011;32921;53.256;8.198;2022-07-06T14:39:18;6.15;;;0.80;;
47161;SDS011;32921;53.256;8.198;2022-07-06T14:41:44;3.75;;;0.70;;
47161;SDS011;32921;53.256;8.198;2022-07-06T14:44:09;4.05;;;0.60;;
47161;SDS011;32921;53.256;8.198;2022-07-06T14:46:35;3.33;;;0.80;;
47161;SDS011;32921;53.256;8.198;2022-07-06T14:49:01;5.55;;;0.93;;
47161;SDS011;32921;53.256;8.198;2022-07-06T14:51:26;4.72;;;0.88;;
47161;SDS011;32921;53.256;8.198;2022-07-06T14:53:52;5.05;;;0.73;;
47161;SDS011;32921;53.256;8.198;2022-07-06T14:56:18;4.88;;;0.75;;
47161;SDS011;32921;53.256;8.198;2022-07-06T14:58:44;4.20;;;0.70;;
47161;SDS011;32921;53.256;8.198;2022-07-06T15:01:10;4.22;;;0.80;;
47161;SDS011;32921;53.256;8.198;2022-07-06T15:03:35;7.13;;;0.98;;